createdAt,value
2023-09-28T00:01:26.140Z,13.90
2023-09-28T00:02:58.847Z,13.80
2023-09-28T00:04:31.044Z,13.80
2023-09-28T00:06:04.651Z,13.80
2023-09-28T00:07:36.844Z,13.70
2023-09-28T00:09:11.548Z,13.70
2023-09-28T00:10:44.974Z,13.60
2023-09-28T00:12:17.145Z,13.60
2023-09-28T00:13:50.672Z,13.50
2023-09-28T00:15:25.258Z,13.50
2023-09-28T00:16:59.250Z,13.50
2023-09-28T00:18:32.464Z,13.60
2023-09-28T00:20:07.592Z,13.60
2023-09-28T00:21:40.765Z,13.60
2023-09-28T00:23:13.466Z,13.60
2023-09-28T00:24:45.623Z,13.60
2023-09-28T00:26:20.325Z,13.60
2023-09-28T00:27:57.142Z,13.50
2023-09-28T00:29:32.296Z,13.50
2023-09-28T00:31:06.763Z,13.40
2023-09-28T00:32:40.449Z,13.40
2023-09-28T00:34:12.843Z,13.40
2023-09-28T00:35:45.974Z,13.40
2023-09-28T00:37:18.148Z,13.40
2023-09-28T00:38:50.360Z,13.30
2023-09-28T00:40:29.331Z,13.40
2023-09-28T00:42:02.487Z,13.40
2023-09-28T00:43:35.892Z,13.50
2023-09-28T00:45:11.629Z,13.50
2023-09-28T00:46:44.531Z,13.50
2023-09-28T00:48:17.807Z,13.60
2023-09-28T00:49:50.095Z,13.60
2023-09-28T00:51:25.233Z,13.60
2023-09-28T00:53:00.400Z,13.60
2023-09-28T00:54:33.255Z,13.60
2023-09-28T00:56:08.999Z,13.60
2023-09-28T00:57:42.939Z,13.60
2023-09-28T00:59:16.163Z,13.60
2023-09-28T01:00:49.954Z,13.60
2023-09-28T01:02:23.847Z,13.60
2023-09-28T01:03:57.230Z,13.60
2023-09-28T01:05:32.244Z,13.60
2023-09-28T01:07:05.835Z,13.60
2023-09-28T01:08:38.105Z,13.60
2023-09-28T01:10:13.684Z,13.70
2023-09-28T01:11:47.592Z,13.70
2023-09-28T01:13:22.466Z,13.70
2023-09-28T01:14:59.276Z,13.70
2023-09-28T01:16:32.805Z,13.60
2023-09-28T01:18:05.709Z,13.70
2023-09-28T01:19:39.825Z,13.70
2023-09-28T01:21:11.976Z,13.70
2023-09-28T01:22:46.847Z,13.60
2023-09-28T01:24:21.226Z,13.60
2023-09-28T01:25:53.640Z,13.60
2023-09-28T01:27:25.876Z,13.70
2023-09-28T01:28:59.256Z,13.70
2023-09-28T01:30:31.741Z,13.70
2023-09-28T01:32:04.020Z,13.70
2023-09-28T01:33:37.296Z,13.70
2023-09-28T01:35:09.938Z,13.70
2023-09-28T01:36:42.055Z,13.70
2023-09-28T01:38:24.380Z,13.70
2023-09-28T01:39:57.730Z,13.80
2023-09-28T01:41:30.856Z,13.80
2023-09-28T01:43:03.445Z,13.90
2023-09-28T01:44:35.620Z,14.00
2023-09-28T01:46:09.280Z,14.00
2023-09-28T01:47:42.646Z,14.10
2023-09-28T01:49:15.993Z,14.10
2023-09-28T01:50:48.140Z,14.10
2023-09-28T01:52:20.407Z,14.10
2023-09-28T01:53:55.100Z,14.20
2023-09-28T01:55:27.549Z,14.20
2023-09-28T01:56:59.733Z,14.20
2023-09-28T01:58:33.584Z,14.10
2023-09-28T02:00:15.169Z,14.10
2023-09-28T02:01:48.377Z,14.10
2023-09-28T02:03:23.064Z,14.10
2023-09-28T02:04:57.981Z,14.00
2023-09-28T02:06:30.198Z,14.00
2023-09-28T02:08:04.405Z,14.00
2023-09-28T02:09:38.042Z,13.90
2023-09-28T02:11:12.421Z,14.00
2023-09-28T02:12:45.395Z,13.90
2023-09-28T02:14:18.633Z,13.90
2023-09-28T02:15:51.845Z,13.80
2023-09-28T02:17:24.066Z,13.80
2023-09-28T02:18:57.177Z,13.80
2023-09-28T02:20:31.300Z,13.80
2023-09-28T02:22:06.770Z,13.80
2023-09-28T02:23:38.937Z,13.70
2023-09-28T02:25:15.587Z,13.80
2023-09-28T02:26:52.880Z,13.80
2023-09-28T02:28:25.024Z,13.80
2023-09-28T02:29:57.300Z,13.80
2023-09-28T02:31:30.559Z,13.70
2023-09-28T02:33:07.739Z,13.70
2023-09-28T02:34:39.991Z,13.70
2023-09-28T02:36:13.156Z,13.70
2023-09-28T02:37:47.374Z,13.70
2023-09-28T02:39:19.599Z,13.70
2023-09-28T02:40:55.034Z,13.70
2023-09-28T02:42:27.180Z,13.70
2023-09-28T02:44:00.336Z,13.70
2023-09-28T02:45:32.568Z,13.70
2023-09-28T02:47:20.864Z,13.70
2023-09-28T02:48:54.110Z,13.60
2023-09-28T02:50:26.226Z,13.70
2023-09-28T02:51:58.402Z,13.70
2023-09-28T02:53:31.505Z,13.70
2023-09-28T02:55:07.460Z,13.70
2023-09-28T02:56:41.347Z,13.60
2023-09-28T02:58:14.505Z,13.60
2023-09-28T02:59:46.760Z,13.60
2023-09-28T03:01:22.314Z,13.60
2023-09-28T03:02:58.400Z,13.60
2023-09-28T03:04:33.508Z,13.60
2023-09-28T03:06:06.715Z,13.60
2023-09-28T03:07:40.632Z,13.50
2023-09-28T03:09:14.258Z,13.60
2023-09-28T03:10:46.606Z,13.60
2023-09-28T03:12:21.488Z,13.50
2023-09-28T03:13:54.558Z,13.60
2023-09-28T03:15:27.779Z,13.60
2023-09-28T03:17:00.016Z,13.50
2023-09-28T03:18:33.677Z,13.60
2023-09-28T03:20:10.851Z,13.60
2023-09-28T03:21:43.242Z,13.60
2023-09-28T03:23:16.797Z,13.60
2023-09-28T03:24:49.392Z,13.50
2023-09-28T03:26:22.831Z,13.50
2023-09-28T03:27:58.582Z,13.50
2023-09-28T03:29:30.681Z,13.50
2023-09-28T03:31:04.778Z,13.50
2023-09-28T03:32:37.573Z,13.40
2023-09-28T03:34:11.355Z,13.40
2023-09-28T03:35:43.504Z,13.40
2023-09-28T03:37:19.931Z,13.40
2023-09-28T03:38:52.158Z,13.30
2023-09-28T03:40:25.447Z,13.30
2023-09-28T03:41:57.747Z,13.30
2023-09-28T03:43:33.142Z,13.30
2023-09-28T03:45:06.164Z,13.30
2023-09-28T03:46:39.232Z,13.20
2023-09-28T03:48:11.560Z,13.30
2023-09-28T03:49:44.671Z,13.20
2023-09-28T03:51:17.941Z,13.30
2023-09-28T03:52:50.813Z,13.20
2023-09-28T03:54:24.013Z,13.20
2023-09-28T03:55:56.276Z,13.30
2023-09-28T03:57:30.558Z,13.20
2023-09-28T03:59:05.125Z,13.10
2023-09-28T04:00:38.994Z,13.00
2023-09-28T04:02:12.189Z,12.80
2023-09-28T04:03:44.752Z,12.80
2023-09-28T04:05:18.069Z,12.70
2023-09-28T04:06:50.750Z,12.60
2023-09-28T04:08:24.128Z,12.60
2023-09-28T04:09:56.328Z,12.50
2023-09-28T04:11:29.501Z,12.40
2023-09-28T04:13:02.435Z,12.40
2023-09-28T04:14:36.904Z,12.30
2023-09-28T04:16:09.048Z,12.30
2023-09-28T04:17:44.729Z,12.30
2023-09-28T04:19:17.879Z,12.30
2023-09-28T04:20:51.203Z,12.20
2023-09-28T04:22:23.460Z,12.20
2023-09-28T04:23:56.651Z,12.10
2023-09-28T04:25:30.634Z,12.10
2023-09-28T04:27:03.900Z,12.00
2023-09-28T04:28:36.092Z,12.00
2023-09-28T04:30:11.725Z,11.90
2023-09-28T04:31:44.058Z,12.00
2023-09-28T04:33:17.337Z,12.00
2023-09-28T04:34:49.893Z,11.90
2023-09-28T04:36:23.393Z,11.90
2023-09-28T04:37:55.569Z,11.90
2023-09-28T04:39:29.093Z,11.90
2023-09-28T04:41:02.109Z,11.80
2023-09-28T04:42:35.270Z,11.80
2023-09-28T04:44:07.984Z,11.80
2023-09-28T04:45:42.587Z,11.70
2023-09-28T04:47:15.395Z,11.60
2023-09-28T04:48:48.627Z,11.60
2023-09-28T04:50:21.509Z,11.50
2023-09-28T04:51:55.093Z,11.50
2023-09-28T04:53:27.589Z,11.50
2023-09-28T04:55:00.920Z,11.40
2023-09-28T04:56:33.200Z,11.30
2023-09-28T04:58:06.510Z,11.40
2023-09-28T04:59:39.425Z,11.60
2023-09-28T05:01:14.528Z,11.70
2023-09-28T05:02:46.992Z,11.50
2023-09-28T05:04:20.187Z,11.50
2023-09-28T05:05:52.336Z,11.50
2023-09-28T05:07:25.441Z,11.40
2023-09-28T05:08:57.647Z,11.40
2023-09-28T05:10:31.204Z,11.40
2023-09-28T05:12:05.077Z,11.30
2023-09-28T05:13:38.829Z,11.40
2023-09-28T05:15:13.465Z,11.40
2023-09-28T05:16:47.135Z,11.30
2023-09-28T05:18:20.537Z,11.30
2023-09-28T05:19:52.780Z,11.40
2023-09-28T05:21:26.256Z,11.40
2023-09-28T05:22:58.482Z,11.40
2023-09-28T05:24:31.700Z,11.40
2023-09-28T05:26:05.513Z,11.40
2023-09-28T05:27:38.735Z,11.40
2023-09-28T05:29:11.133Z,11.50
2023-09-28T05:30:44.309Z,11.50
2023-09-28T05:32:18.194Z,11.60
2023-09-28T05:33:51.484Z,11.80
2023-09-28T05:35:24.276Z,12.20
2023-09-28T05:36:57.484Z,12.90
2023-09-28T05:38:29.736Z,13.50
2023-09-28T05:40:03.296Z,14.20
2023-09-28T05:43:09.055Z,15.80
2023-09-28T05:44:41.248Z,16.00
2023-09-28T18:29:20.278Z,16.90
2023-09-28T18:30:53.527Z,16.70
2023-09-28T18:32:26.865Z,16.70
2023-09-28T18:33:59.729Z,16.60
2023-09-28T18:35:33.579Z,16.50
2023-09-28T18:37:07.120Z,16.40
2023-09-28T18:38:40.300Z,16.40
2023-09-28T18:40:13.871Z,16.30
2023-09-28T18:41:49.195Z,16.20
2023-09-28T18:43:22.539Z,16.20
2023-09-28T18:44:54.843Z,16.10
2023-09-28T18:46:28.072Z,16.00
2023-09-28T18:48:00.446Z,15.90
2023-09-28T18:49:33.664Z,15.80
2023-09-28T18:51:08.304Z,15.70
2023-09-28T18:52:44.092Z,15.70
2023-09-28T18:54:19.115Z,15.60
2023-09-28T18:55:52.271Z,15.60
2023-09-28T18:57:25.581Z,15.50
2023-09-28T18:58:58.929Z,15.50
2023-09-28T19:00:31.164Z,15.40
2023-09-28T19:02:04.298Z,15.40
2023-09-28T19:03:38.923Z,15.30
2023-09-28T19:05:11.522Z,15.20
2023-09-28T19:06:44.796Z,15.20
2023-09-28T19:08:18.637Z,15.10
2023-09-28T19:09:51.945Z,15.20
2023-09-28T19:11:24.107Z,15.10
2023-09-28T19:12:57.258Z,15.10
2023-09-28T19:14:29.794Z,15.10
2023-09-28T19:16:05.926Z,15.10
2023-09-28T19:17:38.235Z,15.00
2023-09-28T19:19:11.530Z,15.00
2023-09-28T19:20:45.869Z,14.90
2023-09-28T19:22:18.935Z,14.90
2023-09-28T19:23:53.846Z,14.80
2023-09-28T19:25:27.372Z,14.80
2023-09-28T19:26:59.497Z,14.80
2023-09-28T19:28:32.626Z,14.80
2023-09-28T19:30:05.621Z,14.80
2023-09-28T19:31:39.041Z,14.80
2023-09-28T19:33:11.292Z,14.80
2023-09-28T19:34:44.408Z,14.80
2023-09-28T19:36:16.533Z,14.90
2023-09-28T19:37:49.926Z,14.90
2023-09-28T19:39:26.232Z,14.90
2023-09-28T19:41:01.188Z,15.00
2023-09-28T19:42:34.948Z,15.00
2023-09-28T19:44:08.109Z,15.00
2023-09-28T19:45:41.245Z,15.00
2023-09-28T19:47:15.076Z,14.90
2023-09-28T19:48:49.475Z,15.00
2023-09-28T19:50:23.373Z,15.00
2023-09-28T19:51:56.507Z,15.10
2023-09-28T19:53:29.970Z,15.10
2023-09-28T19:55:05.272Z,15.10
2023-09-28T19:56:37.474Z,15.20
2023-09-28T19:58:10.823Z,15.20
2023-09-28T19:59:43.140Z,15.20
2023-09-28T20:01:16.363Z,15.30
2023-09-28T20:02:48.675Z,15.30
2023-09-28T20:04:21.914Z,15.30
2023-09-28T20:05:54.213Z,15.40
2023-09-28T20:07:27.361Z,15.40
2023-09-28T20:08:59.959Z,15.30
2023-09-28T20:10:35.313Z,15.30
2023-09-28T20:12:09.771Z,15.30
2023-09-28T20:13:41.902Z,15.30
2023-09-28T20:15:15.021Z,15.30
2023-09-28T20:16:47.133Z,15.20
2023-09-28T20:18:20.450Z,15.10
2023-09-28T20:19:53.813Z,15.00
2023-09-28T20:21:27.133Z,14.90
2023-09-28T20:22:59.253Z,14.90
2023-09-28T20:24:33.455Z,14.90
2023-09-28T20:26:07.986Z,14.90
2023-09-28T20:27:40.178Z,14.90
2023-09-28T20:29:13.332Z,14.80
2023-09-28T20:30:45.711Z,14.80
2023-09-28T20:32:18.934Z,14.90
2023-09-28T20:33:52.303Z,15.00
2023-09-28T20:35:25.732Z,15.00
2023-09-28T20:36:57.864Z,15.10
2023-09-28T20:38:31.902Z,15.10
2023-09-28T20:40:04.670Z,15.10
2023-09-28T20:41:39.462Z,15.20
2023-09-28T20:43:11.641Z,15.20
2023-09-28T20:44:46.175Z,15.20
2023-09-28T20:46:20.395Z,15.20
2023-09-28T20:47:53.866Z,15.20
2023-09-28T20:49:26.100Z,15.20
2023-09-28T20:50:59.312Z,15.20
2023-09-28T20:52:31.902Z,15.10
2023-09-28T20:54:05.744Z,15.10
2023-09-28T20:55:38.101Z,15.10
2023-09-28T20:57:12.686Z,15.00
2023-09-28T20:58:44.909Z,15.00
2023-09-28T21:00:19.067Z,15.00
2023-09-28T21:01:51.670Z,14.90
2023-09-28T21:03:27.538Z,14.90
2023-09-28T21:04:59.931Z,14.90
2023-09-28T21:06:33.075Z,14.80
2023-09-28T21:08:06.005Z,14.80
2023-09-28T21:09:39.207Z,14.70
2023-09-28T21:11:18.487Z,14.70
2023-09-28T21:12:53.029Z,14.60
2023-09-28T21:14:25.165Z,14.50
2023-09-28T21:15:58.468Z,14.50
2023-09-28T21:17:35.500Z,14.40
2023-09-28T21:19:08.685Z,14.50
2023-09-28T21:20:40.941Z,14.50
2023-09-28T21:22:14.106Z,14.50
2023-09-28T21:23:46.571Z,14.50
2023-09-28T21:25:20.404Z,14.60
2023-09-28T21:26:52.639Z,14.60
2023-09-28T21:28:27.085Z,14.50
2023-09-28T21:29:59.397Z,14.50
2023-09-28T21:31:32.710Z,14.40
2023-09-28T21:33:05.541Z,14.40
2023-09-28T21:34:38.814Z,14.30
2023-09-28T21:36:11.275Z,14.30
2023-09-28T21:37:44.412Z,14.20
2023-09-28T21:39:16.530Z,14.20
2023-09-28T21:40:49.740Z,14.20
2023-09-28T21:42:21.894Z,14.20
2023-09-28T21:43:56.369Z,14.20
2023-09-28T21:45:28.487Z,14.20
2023-09-28T21:47:01.602Z,14.10
2023-09-28T21:48:33.816Z,14.10
2023-09-28T21:50:08.381Z,14.20
2023-09-28T21:51:41.617Z,14.20
2023-09-28T21:53:14.527Z,14.20
2023-09-28T21:54:47.640Z,14.20
2023-09-28T21:56:20.587Z,14.20
2023-09-28T21:57:53.702Z,14.20
2023-09-28T21:59:28.012Z,14.20
2023-09-28T22:01:01.606Z,14.20
2023-09-28T22:02:33.908Z,14.30
2023-09-28T22:04:07.452Z,14.30
2023-09-28T22:05:40.394Z,14.20
2023-09-28T22:07:14.091Z,14.10
2023-09-28T22:08:46.293Z,14.10
2023-09-28T22:10:19.475Z,14.10
2023-09-28T22:11:53.136Z,14.10
2023-09-28T22:13:25.680Z,14.10
2023-09-28T22:15:00.741Z,14.10
2023-09-28T22:16:32.967Z,14.10
2023-09-28T22:18:07.282Z,14.10
2023-09-28T22:19:39.442Z,14.00
2023-09-28T22:21:13.196Z,14.00
2023-09-28T22:22:47.013Z,14.10
2023-09-28T22:24:20.671Z,14.10
2023-09-28T22:25:52.872Z,14.10
2023-09-28T22:27:30.228Z,14.10
2023-09-28T22:29:03.395Z,14.10
2023-09-28T22:30:36.912Z,14.10
2023-09-28T22:32:10.396Z,14.10
2023-09-28T22:33:43.026Z,14.10
2023-09-28T22:35:16.579Z,14.10
2023-09-28T22:36:48.762Z,14.10
2023-09-28T22:38:21.987Z,14.10
2023-09-28T22:39:54.741Z,14.10
2023-09-28T22:41:28.208Z,14.10
2023-09-28T22:43:00.572Z,14.10
2023-09-28T22:44:33.766Z,14.10
2023-09-28T22:46:08.426Z,14.10
2023-09-28T22:47:41.758Z,14.00
2023-09-28T22:49:14.089Z,14.00
2023-09-28T22:50:47.261Z,13.90
2023-09-28T22:52:19.742Z,13.80
2023-09-28T22:53:53.241Z,13.70
2023-09-28T22:55:25.417Z,13.60
2023-09-28T22:56:58.547Z,13.50
2023-09-28T22:58:30.692Z,13.50
2023-09-28T23:00:04.943Z,13.50
2023-09-28T23:01:39.337Z,13.40
2023-09-28T23:03:12.582Z,13.40
2023-09-28T23:04:44.788Z,13.40
2023-09-28T23:06:18.487Z,13.40
2023-09-28T23:07:50.740Z,13.40
2023-09-28T23:09:24.380Z,13.40
2023-09-28T23:10:56.521Z,13.40
2023-09-28T23:12:30.068Z,13.40
2023-09-28T23:14:02.607Z,13.50
2023-09-28T23:15:35.738Z,13.60
2023-09-28T23:17:10.206Z,13.60
2023-09-28T23:18:43.896Z,13.60
2023-09-28T23:20:16.605Z,13.70
2023-09-28T23:21:50.105Z,13.60
2023-09-28T23:23:23.394Z,13.60
2023-09-28T23:24:55.629Z,13.60
2023-09-28T23:26:30.198Z,13.60
2023-09-28T23:28:02.393Z,13.60
2023-09-28T23:29:35.738Z,13.60
2023-09-28T23:31:12.585Z,13.70
2023-09-28T23:32:47.898Z,13.70
2023-09-28T23:34:21.584Z,13.80
2023-09-28T23:35:55.136Z,13.80
2023-09-28T23:37:27.418Z,13.70
2023-09-28T23:39:02.045Z,13.70
2023-09-28T23:40:35.586Z,13.70
2023-09-28T23:42:07.796Z,13.70
2023-09-28T23:43:41.885Z,13.70
2023-09-28T23:45:14.215Z,13.70
2023-09-28T23:46:49.961Z,13.70
2023-09-28T23:48:24.668Z,13.60
2023-09-28T23:49:56.938Z,13.70
2023-09-28T23:51:30.960Z,13.60
2023-09-28T23:53:06.513Z,13.60
2023-09-28T23:54:39.642Z,13.60
2023-09-28T23:56:14.752Z,13.60
2023-09-28T23:57:47.877Z,13.70
2023-09-28T23:59:21.063Z,13.70
